sensor_id;sensor_type;location;lat;lon;timestamp;P1;durP1;ratioP1;P2;durP2;ratioP2
41141;SDS011;63666;52.284;20.890;2023-05-19T00:00:31;9.40;;;5.00;;
41141;SDS011;63666;52.284;20.890;2023-05-19T00:03:23;8.50;;;4.50;;
41141;SDS011;63666;52.284;20.890;2023-05-19T00:05:58;8.60;;;4.90;;
41141;SDS011;63666;52.284;20.890;2023-05-19T00:08:38;9.40;;;4.60;;
41141;SDS011;63666;52.284;20.890;2023-05-19T00:11:14;9.70;;;4.80;;
41141;SDS011;63666;52.284;20.890;2023-05-19T00:13:48;9.20;;;4.90;;
41141;SDS011;63666;52.284;20.890;2023-05-19T00:16:23;9.70;;;5.10;;
41141;SDS011;63666;52.284;20.890;2023-05-19T00:18:59;8.60;;;4.50;;
41141;SDS011;63666;52.284;20.890;2023-05-19T00:21:33;8.00;;;4.30;;
41141;SDS011;63666;52.284;20.890;2023-05-19T00:24:08;8.50;;;4.50;;
41141;SDS011;63666;52.284;20.890;2023-05-19T00:26:43;7.70;;;4.40;;
41141;SDS011;63666;52.284;20.890;2023-05-19T00:29:17;7.40;;;4.10;;
41141;SDS011;63666;52.284;20.890;2023-05-19T00:31:51;8.50;;;4.30;;
41141;SDS011;63666;52.284;20.890;2023-05-19T00:34:25;7.90;;;4.10;;
41141;SDS011;63666;52.284;20.890;2023-05-19T00:37:00;9.20;;;4.40;;
41141;SDS011;63666;52.284;20.890;2023-05-19T00:39:35;7.90;;;3.70;;
41141;SDS011;63666;52.284;20.890;2023-05-19T00:42:11;7.80;;;3.80;;
41141;SDS011;63666;52.284;20.890;2023-05-19T00:44:45;7.40;;;3.80;;
41141;SDS011;63666;52.284;20.890;2023-05-19T00:47:18;7.20;;;3.60;;
41141;SDS011;63666;52.284;20.890;2023-05-19T00:49:52;8.00;;;3.90;;
41141;SDS011;63666;52.284;20.890;2023-05-19T00:52:26;8.20;;;4.10;;
41141;SDS011;63666;52.284;20.890;2023-05-19T00:55:01;8.10;;;3.80;;
41141;SDS011;63666;52.284;20.890;2023-05-19T00:57:35;7.40;;;3.70;;
41141;SDS011;63666;52.284;20.890;2023-05-19T01:00:14;6.20;;;3.40;;
41141;SDS011;63666;52.284;20.890;2023-05-19T01:02:49;6.60;;;3.60;;
41141;SDS011;63666;52.284;20.890;2023-05-19T01:05:24;8.00;;;3.50;;
41141;SDS011;63666;52.284;20.890;2023-05-19T01:07:57;6.60;;;3.30;;
41141;SDS011;63666;52.284;20.890;2023-05-19T01:10:31;6.60;;;3.40;;
41141;SDS011;63666;52.284;20.890;2023-05-19T01:13:05;6.70;;;3.30;;
41141;SDS011;63666;52.284;20.890;2023-05-19T01:15:49;6.40;;;3.20;;
41141;SDS011;63666;52.284;20.890;2023-05-19T01:18:35;6.00;;;3.10;;
41141;SDS011;63666;52.284;20.890;2023-05-19T01:21:29;6.60;;;3.10;;
41141;SDS011;63666;52.284;20.890;2023-05-19T01:24:28;5.80;;;3.10;;
41141;SDS011;63666;52.284;20.890;2023-05-19T01:27:26;6.60;;;2.90;;
41141;SDS011;63666;52.284;20.890;2023-05-19T01:30:26;6.10;;;2.90;;
41141;SDS011;63666;52.284;20.890;2023-05-19T01:33:03;6.70;;;3.20;;
41141;SDS011;63666;52.284;20.890;2023-05-19T01:35:40;6.00;;;2.70;;
41141;SDS011;63666;52.284;20.890;2023-05-19T01:38:17;6.40;;;2.80;;
41141;SDS011;63666;52.284;20.890;2023-05-19T01:40:52;5.20;;;2.70;;
41141;SDS011;63666;52.284;20.890;2023-05-19T01:43:27;5.70;;;2.80;;
41141;SDS011;63666;52.284;20.890;2023-05-19T01:46:01;5.90;;;2.60;;
41141;SDS011;63666;52.284;20.890;2023-05-19T01:48:36;5.40;;;2.60;;
41141;SDS011;63666;52.284;20.890;2023-05-19T01:51:09;5.60;;;2.70;;
41141;SDS011;63666;52.284;20.890;2023-05-19T01:53:43;5.20;;;2.50;;
41141;SDS011;63666;52.284;20.890;2023-05-19T01:56:24;5.40;;;2.50;;
41141;SDS011;63666;52.284;20.890;2023-05-19T01:59:08;5.50;;;2.70;;
41141;SDS011;63666;52.284;20.890;2023-05-19T02:01:52;5.80;;;2.50;;
41141;SDS011;63666;52.284;20.890;2023-05-19T02:04:32;4.70;;;2.30;;
41141;SDS011;63666;52.284;20.890;2023-05-19T02:07:14;5.60;;;2.90;;
41141;SDS011;63666;52.284;20.890;2023-05-19T02:09:57;5.40;;;2.50;;
41141;SDS011;63666;52.284;20.890;2023-05-19T02:12:37;5.30;;;2.60;;
41141;SDS011;63666;52.284;20.890;2023-05-19T02:15:16;4.90;;;2.50;;
41141;SDS011;63666;52.284;20.890;2023-05-19T02:17:52;4.90;;;2.50;;
41141;SDS011;63666;52.284;20.890;2023-05-19T02:20:27;5.00;;;2.30;;
41141;SDS011;63666;52.284;20.890;2023-05-19T02:23:01;4.60;;;2.30;;
41141;SDS011;63666;52.284;20.890;2023-05-19T02:25:38;4.60;;;2.10;;
41141;SDS011;63666;52.284;20.890;2023-05-19T02:28:12;5.30;;;2.40;;
41141;SDS011;63666;52.284;20.890;2023-05-19T02:30:47;5.00;;;2.60;;
41141;SDS011;63666;52.284;20.890;2023-05-19T02:33:24;5.00;;;2.20;;
41141;SDS011;63666;52.284;20.890;2023-05-19T02:35:59;5.10;;;2.40;;
41141;SDS011;63666;52.284;20.890;2023-05-19T02:38:34;4.90;;;2.40;;
41141;SDS011;63666;52.284;20.890;2023-05-19T02:41:07;4.90;;;2.40;;
41141;SDS011;63666;52.284;20.890;2023-05-19T02:43:41;5.60;;;2.60;;
41141;SDS011;63666;52.284;20.890;2023-05-19T02:46:18;4.90;;;2.50;;
41141;SDS011;63666;52.284;20.890;2023-05-19T02:48:57;5.10;;;2.30;;
41141;SDS011;63666;52.284;20.890;2023-05-19T02:51:30;5.10;;;2.30;;
41141;SDS011;63666;52.284;20.890;2023-05-19T02:54:04;5.30;;;2.30;;
41141;SDS011;63666;52.284;20.890;2023-05-19T02:56:40;4.50;;;2.30;;
41141;SDS011;63666;52.284;20.890;2023-05-19T02:59:17;4.40;;;2.20;;
41141;SDS011;63666;52.284;20.890;2023-05-19T03:01:53;4.50;;;2.20;;
41141;SDS011;63666;52.284;20.890;2023-05-19T03:04:28;4.50;;;2.00;;
41141;SDS011;63666;52.284;20.890;2023-05-19T03:07:03;4.80;;;2.20;;
41141;SDS011;63666;52.284;20.890;2023-05-19T03:09:38;4.90;;;2.30;;
41141;SDS011;63666;52.284;20.890;2023-05-19T03:12:13;4.80;;;2.30;;
41141;SDS011;63666;52.284;20.890;2023-05-19T03:14:48;4.70;;;2.20;;
41141;SDS011;63666;52.284;20.890;2023-05-19T03:17:24;4.20;;;2.10;;
41141;SDS011;63666;52.284;20.890;2023-05-19T03:20:06;5.20;;;2.20;;
41141;SDS011;63666;52.284;20.890;2023-05-19T03:22:44;4.60;;;2.20;;
41141;SDS011;63666;52.284;20.890;2023-05-19T03:25:24;4.40;;;2.30;;
41141;SDS011;63666;52.284;20.890;2023-05-19T03:27:58;4.40;;;2.30;;
41141;SDS011;63666;52.284;20.890;2023-05-19T03:30:32;4.70;;;2.20;;
41141;SDS011;63666;52.284;20.890;2023-05-19T03:33:08;4.50;;;2.20;;
41141;SDS011;63666;52.284;20.890;2023-05-19T03:35:43;4.30;;;2.20;;
41141;SDS011;63666;52.284;20.890;2023-05-19T03:38:19;4.40;;;2.20;;
41141;SDS011;63666;52.284;20.890;2023-05-19T03:40:53;4.30;;;2.20;;
41141;SDS011;63666;52.284;20.890;2023-05-19T03:43:27;4.20;;;2.30;;
41141;SDS011;63666;52.284;20.890;2023-05-19T03:46:01;4.70;;;2.30;;
41141;SDS011;63666;52.284;20.890;2023-05-19T03:48:34;4.50;;;2.40;;
41141;SDS011;63666;52.284;20.890;2023-05-19T03:51:08;4.50;;;2.00;;
41141;SDS011;63666;52.284;20.890;2023-05-19T03:53:43;4.40;;;2.20;;
41141;SDS011;63666;52.284;20.890;2023-05-19T03:56:16;4.20;;;2.10;;
41141;SDS011;63666;52.284;20.890;2023-05-19T03:58:54;4.60;;;2.10;;
41141;SDS011;63666;52.284;20.890;2023-05-19T04:01:27;4.70;;;2.30;;
41141;SDS011;63666;52.284;20.890;2023-05-19T04:04:21;4.30;;;2.20;;
41141;SDS011;63666;52.284;20.890;2023-05-19T04:07:15;4.30;;;2.00;;
41141;SDS011;63666;52.284;20.890;2023-05-19T04:09:49;4.20;;;2.30;;
41141;SDS011;63666;52.284;20.890;2023-05-19T04:12:24;4.10;;;2.10;;
41141;SDS011;63666;52.284;20.890;2023-05-19T04:14:57;4.20;;;2.10;;
41141;SDS011;63666;52.284;20.890;2023-05-19T04:17:33;4.50;;;2.20;;
41141;SDS011;63666;52.284;20.890;2023-05-19T04:20:12;4.70;;;2.30;;
41141;SDS011;63666;52.284;20.890;2023-05-19T04:22:46;3.90;;;1.90;;
41141;SDS011;63666;52.284;20.890;2023-05-19T04:25:20;4.20;;;2.00;;
41141;SDS011;63666;52.284;20.890;2023-05-19T04:27:56;4.40;;;2.30;;
41141;SDS011;63666;52.284;20.890;2023-05-19T04:30:32;4.10;;;2.00;;
41141;SDS011;63666;52.284;20.890;2023-05-19T04:33:06;4.30;;;2.00;;
41141;SDS011;63666;52.284;20.890;2023-05-19T04:35:42;4.80;;;2.20;;
41141;SDS011;63666;52.284;20.890;2023-05-19T04:38:16;4.30;;;2.00;;
41141;SDS011;63666;52.284;20.890;2023-05-19T04:40:54;4.30;;;2.20;;
41141;SDS011;63666;52.284;20.890;2023-05-19T04:43:31;5.00;;;2.20;;
41141;SDS011;63666;52.284;20.890;2023-05-19T04:46:06;4.20;;;2.00;;
41141;SDS011;63666;52.284;20.890;2023-05-19T04:48:46;3.80;;;1.80;;
41141;SDS011;63666;52.284;20.890;2023-05-19T04:51:19;4.20;;;2.10;;
41141;SDS011;63666;52.284;20.890;2023-05-19T04:54:00;4.00;;;2.10;;
41141;SDS011;63666;52.284;20.890;2023-05-19T04:56:36;4.20;;;2.00;;
41141;SDS011;63666;52.284;20.890;2023-05-19T04:59:11;4.20;;;1.90;;
41141;SDS011;63666;52.284;20.890;2023-05-19T05:01:44;4.10;;;2.10;;
41141;SDS011;63666;52.284;20.890;2023-05-19T05:04:18;4.00;;;1.90;;
41141;SDS011;63666;52.284;20.890;2023-05-19T05:06:51;4.10;;;2.10;;
41141;SDS011;63666;52.284;20.890;2023-05-19T05:09:28;3.80;;;2.00;;
41141;SDS011;63666;52.284;20.890;2023-05-19T05:12:03;4.00;;;2.00;;
41141;SDS011;63666;52.284;20.890;2023-05-19T05:14:39;4.00;;;1.80;;
41141;SDS011;63666;52.284;20.890;2023-05-19T05:17:14;4.20;;;2.00;;
41141;SDS011;63666;52.284;20.890;2023-05-19T05:19:50;4.00;;;2.00;;
41141;SDS011;63666;52.284;20.890;2023-05-19T05:22:26;4.60;;;2.00;;
41141;SDS011;63666;52.284;20.890;2023-05-19T05:25:03;4.50;;;2.10;;
41141;SDS011;63666;52.284;20.890;2023-05-19T05:27:39;4.50;;;2.00;;
41141;SDS011;63666;52.284;20.890;2023-05-19T05:30:14;3.90;;;1.90;;
41141;SDS011;63666;52.284;20.890;2023-05-19T05:32:49;4.20;;;2.00;;
41141;SDS011;63666;52.284;20.890;2023-05-19T05:35:25;3.80;;;1.80;;
41141;SDS011;63666;52.284;20.890;2023-05-19T05:37:59;4.90;;;2.00;;
41141;SDS011;63666;52.284;20.890;2023-05-19T05:40:33;4.60;;;2.00;;
41141;SDS011;63666;52.284;20.890;2023-05-19T05:43:11;4.10;;;1.90;;
41141;SDS011;63666;52.284;20.890;2023-05-19T05:45:46;4.60;;;1.90;;
41141;SDS011;63666;52.284;20.890;2023-05-19T05:48:23;4.20;;;1.80;;
41141;SDS011;63666;52.284;20.890;2023-05-19T05:50:59;4.30;;;2.00;;
41141;SDS011;63666;52.284;20.890;2023-05-19T05:53:39;4.00;;;1.80;;
41141;SDS011;63666;52.284;20.890;2023-05-19T05:56:15;4.40;;;1.90;;
41141;SDS011;63666;52.284;20.890;2023-05-19T05:58:51;5.20;;;2.00;;
41141;SDS011;63666;52.284;20.890;2023-05-19T06:01:27;4.80;;;1.90;;
41141;SDS011;63666;52.284;20.890;2023-05-19T06:04:05;4.90;;;1.90;;
41141;SDS011;63666;52.284;20.890;2023-05-19T06:06:38;4.50;;;1.70;;
41141;SDS011;63666;52.284;20.890;2023-05-19T06:09:12;5.50;;;2.00;;
41141;SDS011;63666;52.284;20.890;2023-05-19T06:11:46;3.90;;;1.70;;
41141;SDS011;63666;52.284;20.890;2023-05-19T06:14:22;4.20;;;1.90;;
41141;SDS011;63666;52.284;20.890;2023-05-19T06:16:56;4.20;;;1.70;;
41141;SDS011;63666;52.284;20.890;2023-05-19T06:19:29;5.20;;;1.90;;
41141;SDS011;63666;52.284;20.890;2023-05-19T06:22:04;4.40;;;2.00;;
41141;SDS011;63666;52.284;20.890;2023-05-19T06:24:37;3.70;;;1.70;;
41141;SDS011;63666;52.284;20.890;2023-05-19T06:27:12;4.20;;;1.80;;
41141;SDS011;63666;52.284;20.890;2023-05-19T06:29:46;3.90;;;1.80;;
41141;SDS011;63666;52.284;20.890;2023-05-19T06:32:21;4.70;;;2.00;;
41141;SDS011;63666;52.284;20.890;2023-05-19T06:34:55;3.80;;;1.90;;
41141;SDS011;63666;52.284;20.890;2023-05-19T06:37:28;3.90;;;1.70;;
41141;SDS011;63666;52.284;20.890;2023-05-19T06:40:03;3.70;;;1.70;;
41141;SDS011;63666;52.284;20.890;2023-05-19T06:42:39;4.80;;;1.90;;
41141;SDS011;63666;52.284;20.890;2023-05-19T06:45:13;5.70;;;1.90;;
41141;SDS011;63666;52.284;20.890;2023-05-19T06:47:51;5.20;;;2.00;;
41141;SDS011;63666;52.284;20.890;2023-05-19T06:50:29;5.30;;;1.90;;
41141;SDS011;63666;52.284;20.890;2023-05-19T06:53:07;6.40;;;2.20;;
41141;SDS011;63666;52.284;20.890;2023-05-19T06:55:41;4.70;;;1.90;;
41141;SDS011;63666;52.284;20.890;2023-05-19T06:58:29;5.60;;;2.20;;
41141;SDS011;63666;52.284;20.890;2023-05-19T07:01:02;6.80;;;2.10;;
41141;SDS011;63666;52.284;20.890;2023-05-19T07:03:37;4.60;;;1.80;;
41141;SDS011;63666;52.284;20.890;2023-05-19T07:06:12;5.50;;;2.00;;
41141;SDS011;63666;52.284;20.890;2023-05-19T07:08:46;4.90;;;1.90;;
41141;SDS011;63666;52.284;20.890;2023-05-19T07:11:20;4.60;;;1.80;;
41141;SDS011;63666;52.284;20.890;2023-05-19T07:13:54;4.10;;;2.10;;
41141;SDS011;63666;52.284;20.890;2023-05-19T07:16:28;5.10;;;1.90;;
41141;SDS011;63666;52.284;20.890;2023-05-19T07:19:03;4.40;;;1.90;;
41141;SDS011;63666;52.284;20.890;2023-05-19T07:21:36;5.10;;;1.80;;
41141;SDS011;63666;52.284;20.890;2023-05-19T07:24:13;5.10;;;1.80;;
41141;SDS011;63666;52.284;20.890;2023-05-19T07:26:47;5.80;;;1.90;;
41141;SDS011;63666;52.284;20.890;2023-05-19T07:29:23;4.50;;;1.80;;
41141;SDS011;63666;52.284;20.890;2023-05-19T07:31:58;5.40;;;1.90;;
41141;SDS011;63666;52.284;20.890;2023-05-19T07:34:32;3.90;;;1.80;;
41141;SDS011;63666;52.284;20.890;2023-05-19T07:37:10;4.40;;;1.80;;
41141;SDS011;63666;52.284;20.890;2023-05-19T07:39:46;4.40;;;1.90;;
41141;SDS011;63666;52.284;20.890;2023-05-19T07:42:21;4.10;;;1.60;;
41141;SDS011;63666;52.284;20.890;2023-05-19T07:44:56;4.30;;;1.70;;
41141;SDS011;63666;52.284;20.890;2023-05-19T07:47:31;4.90;;;1.70;;
41141;SDS011;63666;52.284;20.890;2023-05-19T07:50:06;4.50;;;1.70;;
41141;SDS011;63666;52.284;20.890;2023-05-19T07:52:40;4.30;;;1.80;;
41141;SDS011;63666;52.284;20.890;2023-05-19T07:55:14;4.80;;;1.60;;
41141;SDS011;63666;52.284;20.890;2023-05-19T07:57:49;4.80;;;1.70;;
41141;SDS011;63666;52.284;20.890;2023-05-19T08:00:23;4.10;;;1.50;;
41141;SDS011;63666;52.284;20.890;2023-05-19T08:02:57;3.90;;;1.60;;
41141;SDS011;63666;52.284;20.890;2023-05-19T08:05:31;3.90;;;1.70;;
41141;SDS011;63666;52.284;20.890;2023-05-19T08:08:07;3.60;;;1.60;;
41141;SDS011;63666;52.284;20.890;2023-05-19T08:10:42;4.20;;;1.70;;
41141;SDS011;63666;52.284;20.890;2023-05-19T08:13:15;4.50;;;1.80;;
41141;SDS011;63666;52.284;20.890;2023-05-19T08:15:48;4.10;;;1.80;;
41141;SDS011;63666;52.284;20.890;2023-05-19T08:18:24;3.70;;;1.50;;
41141;SDS011;63666;52.284;20.890;2023-05-19T08:20:58;5.10;;;1.80;;
41141;SDS011;63666;52.284;20.890;2023-05-19T08:23:36;4.20;;;1.60;;
41141;SDS011;63666;52.284;20.890;2023-05-19T08:26:12;4.00;;;1.50;;
41141;SDS011;63666;52.284;20.890;2023-05-19T08:28:46;4.10;;;1.80;;
41141;SDS011;63666;52.284;20.890;2023-05-19T08:31:22;4.90;;;1.80;;
41141;SDS011;63666;52.284;20.890;2023-05-19T08:33:55;4.00;;;1.70;;
41141;SDS011;63666;52.284;20.890;2023-05-19T08:36:30;4.60;;;1.60;;
41141;SDS011;63666;52.284;20.890;2023-05-19T08:39:03;3.90;;;1.50;;
41141;SDS011;63666;52.284;20.890;2023-05-19T08:41:36;3.60;;;1.60;;
41141;SDS011;63666;52.284;20.890;2023-05-19T08:44:14;4.10;;;1.60;;
41141;SDS011;63666;52.284;20.890;2023-05-19T08:46:50;4.40;;;1.60;;
41141;SDS011;63666;52.284;20.890;2023-05-19T08:49:28;3.50;;;1.50;;
41141;SDS011;63666;52.284;20.890;2023-05-19T08:52:13;4.50;;;1.70;;
41141;SDS011;63666;52.284;20.890;2023-05-19T08:54:54;3.90;;;1.70;;
41141;SDS011;63666;52.284;20.890;2023-05-19T08:57:32;4.30;;;1.50;;
41141;SDS011;63666;52.284;20.890;2023-05-19T09:00:07;4.60;;;1.50;;
41141;SDS011;63666;52.284;20.890;2023-05-19T09:02:42;4.30;;;1.60;;
41141;SDS011;63666;52.284;20.890;2023-05-19T09:05:36;3.30;;;1.50;;
41141;SDS011;63666;52.284;20.890;2023-05-19T09:08:11;3.60;;;1.50;;
41141;SDS011;63666;52.284;20.890;2023-05-19T09:10:45;3.50;;;1.50;;
41141;SDS011;63666;52.284;20.890;2023-05-19T09:13:20;4.00;;;1.70;;
41141;SDS011;63666;52.284;20.890;2023-05-19T09:15:56;3.40;;;1.60;;
41141;SDS011;63666;52.284;20.890;2023-05-19T09:18:31;3.50;;;1.50;;
41141;SDS011;63666;52.284;20.890;2023-05-19T09:21:07;3.80;;;1.60;;
41141;SDS011;63666;52.284;20.890;2023-05-19T09:23:47;4.40;;;1.70;;
41141;SDS011;63666;52.284;20.890;2023-05-19T09:26:22;4.40;;;1.80;;
41141;SDS011;63666;52.284;20.890;2023-05-19T09:28:58;3.60;;;1.70;;
41141;SDS011;63666;52.284;20.890;2023-05-19T09:31:36;4.10;;;1.70;;
41141;SDS011;63666;52.284;20.890;2023-05-19T09:34:15;4.00;;;1.80;;
41141;SDS011;63666;52.284;20.890;2023-05-19T09:36:49;5.40;;;2.40;;
41141;SDS011;63666;52.284;20.890;2023-05-19T09:39:26;6.40;;;1.80;;
41141;SDS011;63666;52.284;20.890;2023-05-19T09:42:05;4.00;;;1.60;;
41141;SDS011;63666;52.284;20.890;2023-05-19T09:44:38;3.50;;;1.60;;
41141;SDS011;63666;52.284;20.890;2023-05-19T09:47:14;4.00;;;1.60;;
41141;SDS011;63666;52.284;20.890;2023-05-19T09:49:48;3.60;;;1.70;;
41141;SDS011;63666;52.284;20.890;2023-05-19T09:52:25;3.80;;;1.60;;
41141;SDS011;63666;52.284;20.890;2023-05-19T09:54:59;4.60;;;1.60;;
41141;SDS011;63666;52.284;20.890;2023-05-19T09:57:36;4.00;;;1.60;;
41141;SDS011;63666;52.284;20.890;2023-05-19T10:00:12;4.40;;;1.50;;
41141;SDS011;63666;52.284;20.890;2023-05-19T10:02:48;4.10;;;1.60;;
41141;SDS011;63666;52.284;20.890;2023-05-19T10:05:22;3.60;;;1.40;;
41141;SDS011;63666;52.284;20.890;2023-05-19T10:07:57;3.40;;;1.50;;
41141;SDS011;63666;52.284;20.890;2023-05-19T10:10:31;4.20;;;1.80;;
41141;SDS011;63666;52.284;20.890;2023-05-19T10:13:06;4.60;;;1.60;;
41141;SDS011;63666;52.284;20.890;2023-05-19T10:15:40;4.00;;;1.50;;
41141;SDS011;63666;52.284;20.890;2023-05-19T10:18:25;3.90;;;1.60;;
41141;SDS011;63666;52.284;20.890;2023-05-19T10:21:00;3.70;;;1.70;;
41141;SDS011;63666;52.284;20.890;2023-05-19T10:23:35;3.90;;;1.60;;
41141;SDS011;63666;52.284;20.890;2023-05-19T10:26:12;3.70;;;1.60;;
41141;SDS011;63666;52.284;20.890;2023-05-19T10:28:49;3.40;;;1.60;;
41141;SDS011;63666;52.284;20.890;2023-05-19T10:31:23;4.30;;;2.00;;
41141;SDS011;63666;52.284;20.890;2023-05-19T10:34:08;4.10;;;1.60;;
41141;SDS011;63666;52.284;20.890;2023-05-19T10:37:01;3.80;;;1.70;;
41141;SDS011;63666;52.284;20.890;2023-05-19T10:39:43;4.10;;;1.70;;
41141;SDS011;63666;52.284;20.890;2023-05-19T10:42:28;4.00;;;1.60;;
41141;SDS011;63666;52.284;20.890;2023-05-19T10:45:14;4.10;;;1.90;;
41141;SDS011;63666;52.284;20.890;2023-05-19T10:47:53;4.20;;;1.60;;
41141;SDS011;63666;52.284;20.890;2023-05-19T10:50:29;4.90;;;1.80;;
41141;SDS011;63666;52.284;20.890;2023-05-19T10:53:14;3.70;;;1.60;;
41141;SDS011;63666;52.284;20.890;2023-05-19T10:55:51;3.60;;;1.50;;
41141;SDS011;63666;52.284;20.890;2023-05-19T10:58:40;4.80;;;1.80;;
41141;SDS011;63666;52.284;20.890;2023-05-19T11:01:21;3.30;;;1.60;;
41141;SDS011;63666;52.284;20.890;2023-05-19T11:04:05;3.90;;;1.80;;
41141;SDS011;63666;52.284;20.890;2023-05-19T11:06:50;3.90;;;1.60;;
41141;SDS011;63666;52.284;20.890;2023-05-19T11:09:24;3.90;;;1.80;;
41141;SDS011;63666;52.284;20.890;2023-05-19T11:14:44;4.10;;;1.80;;
41141;SDS011;63666;52.284;20.890;2023-05-19T11:17:19;3.70;;;1.60;;
41141;SDS011;63666;52.284;20.890;2023-05-19T11:19:54;4.00;;;1.50;;
41141;SDS011;63666;52.284;20.890;2023-05-19T11:22:28;4.20;;;1.70;;
41141;SDS011;63666;52.284;20.890;2023-05-19T11:25:05;3.60;;;1.70;;
41141;SDS011;63666;52.284;20.890;2023-05-19T11:27:39;3.80;;;1.60;;
41141;SDS011;63666;52.284;20.890;2023-05-19T11:30:15;3.90;;;1.70;;
41141;SDS011;63666;52.284;20.890;2023-05-19T11:32:49;4.10;;;1.80;;
41141;SDS011;63666;52.284;20.890;2023-05-19T11:35:23;3.50;;;1.60;;
41141;SDS011;63666;52.284;20.890;2023-05-19T11:37:56;4.20;;;1.90;;
41141;SDS011;63666;52.284;20.890;2023-05-19T11:40:33;3.60;;;1.70;;
41141;SDS011;63666;52.284;20.890;2023-05-19T11:43:07;3.80;;;1.80;;
41141;SDS011;63666;52.284;20.890;2023-05-19T11:45:40;3.70;;;1.70;;
41141;SDS011;63666;52.284;20.890;2023-05-19T11:48:14;3.80;;;1.70;;
41141;SDS011;63666;52.284;20.890;2023-05-19T11:50:48;4.00;;;1.80;;
41141;SDS011;63666;52.284;20.890;2023-05-19T11:53:23;3.80;;;1.60;;
41141;SDS011;63666;52.284;20.890;2023-05-19T11:58:37;3.70;;;1.50;;
41141;SDS011;63666;52.284;20.890;2023-05-19T12:01:10;4.70;;;1.80;;
41141;SDS011;63666;52.284;20.890;2023-05-19T12:03:47;3.70;;;1.70;;
41141;SDS011;63666;52.284;20.890;2023-05-19T12:06:24;5.20;;;1.80;;
41141;SDS011;63666;52.284;20.890;2023-05-19T12:08:59;4.30;;;1.70;;
41141;SDS011;63666;52.284;20.890;2023-05-19T12:11:34;4.30;;;1.70;;
41141;SDS011;63666;52.284;20.890;2023-05-19T12:14:12;4.50;;;2.00;;
41141;SDS011;63666;52.284;20.890;2023-05-19T12:16:45;3.90;;;1.70;;
41141;SDS011;63666;52.284;20.890;2023-05-19T12:19:19;3.80;;;1.70;;
41141;SDS011;63666;52.284;20.890;2023-05-19T12:21:55;4.00;;;1.70;;
41141;SDS011;63666;52.284;20.890;2023-05-19T12:24:29;4.00;;;1.80;;
41141;SDS011;63666;52.284;20.890;2023-05-19T12:27:10;4.30;;;1.70;;
41141;SDS011;63666;52.284;20.890;2023-05-19T12:29:49;3.50;;;1.60;;
41141;SDS011;63666;52.284;20.890;2023-05-19T12:32:25;4.60;;;1.70;;
41141;SDS011;63666;52.284;20.890;2023-05-19T12:35:00;4.20;;;1.70;;
41141;SDS011;63666;52.284;20.890;2023-05-19T12:37:39;4.40;;;1.70;;
41141;SDS011;63666;52.284;20.890;2023-05-19T12:40:15;3.50;;;1.70;;
41141;SDS011;63666;52.284;20.890;2023-05-19T12:42:49;3.70;;;1.80;;
41141;SDS011;63666;52.284;20.890;2023-05-19T12:45:27;3.70;;;1.80;;
41141;SDS011;63666;52.284;20.890;2023-05-19T12:48:05;3.80;;;1.80;;
41141;SDS011;63666;52.284;20.890;2023-05-19T12:50:49;4.10;;;1.80;;
41141;SDS011;63666;52.284;20.890;2023-05-19T12:53:27;3.70;;;1.80;;
41141;SDS011;63666;52.284;20.890;2023-05-19T12:56:12;4.30;;;1.80;;
41141;SDS011;63666;52.284;20.890;2023-05-19T12:58:53;3.70;;;1.60;;
41141;SDS011;63666;52.284;20.890;2023-05-19T13:01:27;4.00;;;1.80;;
41141;SDS011;63666;52.284;20.890;2023-05-19T13:04:01;6.50;;;2.00;;
41141;SDS011;63666;52.284;20.890;2023-05-19T13:06:36;3.70;;;1.70;;
41141;SDS011;63666;52.284;20.890;2023-05-19T13:09:13;5.20;;;1.80;;
41141;SDS011;63666;52.284;20.890;2023-05-19T13:11:48;3.90;;;1.80;;
41141;SDS011;63666;52.284;20.890;2023-05-19T13:14:23;4.20;;;1.80;;
41141;SDS011;63666;52.284;20.890;2023-05-19T13:16:56;4.70;;;1.90;;
41141;SDS011;63666;52.284;20.890;2023-05-19T13:19:31;3.80;;;1.60;;
41141;SDS011;63666;52.284;20.890;2023-05-19T13:22:06;4.50;;;1.90;;
41141;SDS011;63666;52.284;20.890;2023-05-19T13:24:41;4.30;;;1.90;;
41141;SDS011;63666;52.284;20.890;2023-05-19T13:27:15;4.30;;;1.70;;
41141;SDS011;63666;52.284;20.890;2023-05-19T13:29:52;3.70;;;1.80;;
41141;SDS011;63666;52.284;20.890;2023-05-19T13:32:26;3.20;;;1.50;;
41141;SDS011;63666;52.284;20.890;2023-05-19T13:35:01;4.10;;;2.00;;
41141;SDS011;63666;52.284;20.890;2023-05-19T13:37:35;4.40;;;1.90;;
41141;SDS011;63666;52.284;20.890;2023-05-19T13:40:11;3.90;;;1.70;;
41141;SDS011;63666;52.284;20.890;2023-05-19T13:42:46;4.10;;;1.90;;
41141;SDS011;63666;52.284;20.890;2023-05-19T13:45:19;3.60;;;1.70;;
41141;SDS011;63666;52.284;20.890;2023-05-19T13:47:53;4.60;;;2.20;;
41141;SDS011;63666;52.284;20.890;2023-05-19T13:50:28;4.60;;;1.80;;
41141;SDS011;63666;52.284;20.890;2023-05-19T13:53:01;4.30;;;2.00;;
41141;SDS011;63666;52.284;20.890;2023-05-19T13:55:36;3.90;;;1.80;;
41141;SDS011;63666;52.284;20.890;2023-05-19T13:58:12;5.10;;;2.20;;
41141;SDS011;63666;52.284;20.890;2023-05-19T14:00:49;11.60;;;5.50;;
41141;SDS011;63666;52.284;20.890;2023-05-19T14:03:26;10.30;;;4.60;;
41141;SDS011;63666;52.284;20.890;2023-05-19T14:05:59;13.30;;;6.70;;
41141;SDS011;63666;52.284;20.890;2023-05-19T14:08:34;15.90;;;6.90;;
41141;SDS011;63666;52.284;20.890;2023-05-19T14:11:08;14.00;;;6.40;;
41141;SDS011;63666;52.284;20.890;2023-05-19T14:13:41;12.10;;;5.80;;
41141;SDS011;63666;52.284;20.890;2023-05-19T14:16:15;10.90;;;5.20;;
41141;SDS011;63666;52.284;20.890;2023-05-19T14:18:50;11.30;;;5.80;;
41141;SDS011;63666;52.284;20.890;2023-05-19T14:21:26;12.20;;;5.50;;
41141;SDS011;63666;52.284;20.890;2023-05-19T14:24:00;12.20;;;5.30;;
41141;SDS011;63666;52.284;20.890;2023-05-19T14:26:35;11.00;;;5.30;;
41141;SDS011;63666;52.284;20.890;2023-05-19T14:29:08;9.50;;;4.70;;
41141;SDS011;63666;52.284;20.890;2023-05-19T14:31:44;9.90;;;4.80;;
41141;SDS011;63666;52.284;20.890;2023-05-19T14:34:19;10.10;;;4.80;;
41141;SDS011;63666;52.284;20.890;2023-05-19T14:36:52;10.40;;;4.90;;
41141;SDS011;63666;52.284;20.890;2023-05-19T14:39:30;9.80;;;4.70;;
41141;SDS011;63666;52.284;20.890;2023-05-19T14:42:05;10.20;;;4.60;;
41141;SDS011;63666;52.284;20.890;2023-05-19T14:44:39;9.60;;;4.40;;
41141;SDS011;63666;52.284;20.890;2023-05-19T14:47:19;9.60;;;4.50;;
41141;SDS011;63666;52.284;20.890;2023-05-19T14:49:53;8.00;;;3.90;;
41141;SDS011;63666;52.284;20.890;2023-05-19T14:52:31;8.70;;;4.00;;
41141;SDS011;63666;52.284;20.890;2023-05-19T14:55:05;8.00;;;4.00;;
41141;SDS011;63666;52.284;20.890;2023-05-19T14:57:43;6.80;;;3.50;;
41141;SDS011;63666;52.284;20.890;2023-05-19T15:00:21;7.70;;;3.60;;
41141;SDS011;63666;52.284;20.890;2023-05-19T15:02:58;7.40;;;3.20;;
41141;SDS011;63666;52.284;20.890;2023-05-19T15:05:32;12.10;;;5.90;;
41141;SDS011;63666;52.284;20.890;2023-05-19T15:08:09;10.00;;;5.20;;
41141;SDS011;63666;52.284;20.890;2023-05-19T15:10:43;9.60;;;4.90;;
41141;SDS011;63666;52.284;20.890;2023-05-19T15:13:22;8.90;;;4.60;;
41141;SDS011;63666;52.284;20.890;2023-05-19T15:15:57;9.30;;;4.50;;
41141;SDS011;63666;52.284;20.890;2023-05-19T15:18:46;9.20;;;4.70;;
41141;SDS011;63666;52.284;20.890;2023-05-19T15:21:22;10.90;;;4.50;;
41141;SDS011;63666;52.284;20.890;2023-05-19T15:23:58;9.20;;;4.70;;
41141;SDS011;63666;52.284;20.890;2023-05-19T15:26:33;7.90;;;4.40;;
41141;SDS011;63666;52.284;20.890;2023-05-19T15:29:07;14.10;;;7.50;;
41141;SDS011;63666;52.284;20.890;2023-05-19T15:31:44;18.60;;;10.20;;